sensor_id;sensor_type;location;lat;lon;timestamp;temperature;humidity
12477;DHT22;6303;51.504;6.300;2022-12-24T00:00:16;23.20;54.40
12477;DHT22;6303;51.504;6.300;2022-12-24T00:02:44;23.20;54.50
12477;DHT22;6303;51.504;6.300;2022-12-24T00:05:11;23.20;54.50
12477;DHT22;6303;51.504;6.300;2022-12-24T00:07:38;23.30;54.40
12477;DHT22;6303;51.504;6.300;2022-12-24T00:10:08;23.20;54.30
12477;DHT22;6303;51.504;6.300;2022-12-24T00:12:35;23.30;54.30
12477;DHT22;6303;51.504;6.300;2022-12-24T00:15:03;23.30;54.30
12477;DHT22;6303;51.504;6.300;2022-12-24T00:17:30;23.20;54.30
12477;DHT22;6303;51.504;6.300;2022-12-24T00:19:57;23.20;54.30
12477;DHT22;6303;51.504;6.300;2022-12-24T00:22:24;23.30;54.30
12477;DHT22;6303;51.504;6.300;2022-12-24T00:24:52;23.20;53.70
12477;DHT22;6303;51.504;6.300;2022-12-24T00:27:20;23.20;54.10
12477;DHT22;6303;51.504;6.300;2022-12-24T00:29:47;23.30;54.20
12477;DHT22;6303;51.504;6.300;2022-12-24T00:32:14;23.20;54.20
12477;DHT22;6303;51.504;6.300;2022-12-24T00:34:42;23.30;54.20
12477;DHT22;6303;51.504;6.300;2022-12-24T00:37:09;23.20;54.10
12477;DHT22;6303;51.504;6.300;2022-12-24T00:39:37;23.30;54.20
12477;DHT22;6303;51.504;6.300;2022-12-24T00:42:04;23.20;54.10
12477;DHT22;6303;51.504;6.300;2022-12-24T00:44:32;23.20;54.10
12477;DHT22;6303;51.504;6.300;2022-12-24T00:46:59;23.20;54.10
12477;DHT22;6303;51.504;6.300;2022-12-24T00:49:26;23.20;54.10
12477;DHT22;6303;51.504;6.300;2022-12-24T00:51:53;23.20;54.80
12477;DHT22;6303;51.504;6.300;2022-12-24T00:54:20;23.30;54.60
12477;DHT22;6303;51.504;6.300;2022-12-24T00:56:47;23.30;54.50
12477;DHT22;6303;51.504;6.300;2022-12-24T00:59:14;23.30;54.70
12477;DHT22;6303;51.504;6.300;2022-12-24T01:01:43;23.30;54.90
12477;DHT22;6303;51.504;6.300;2022-12-24T01:04:10;23.30;55.20
12477;DHT22;6303;51.504;6.300;2022-12-24T01:06:54;23.20;54.90
12477;DHT22;6303;51.504;6.300;2022-12-24T01:09:21;23.20;55.20
12477;DHT22;6303;51.504;6.300;2022-12-24T01:11:48;23.20;55.30
12477;DHT22;6303;51.504;6.300;2022-12-24T01:14:16;23.30;55.40
12477;DHT22;6303;51.504;6.300;2022-12-24T01:16:44;23.30;55.40
12477;DHT22;6303;51.504;6.300;2022-12-24T01:19:11;23.30;55.40
12477;DHT22;6303;51.504;6.300;2022-12-24T01:21:38;23.30;55.40
12477;DHT22;6303;51.504;6.300;2022-12-24T01:24:06;23.40;55.30
12477;DHT22;6303;51.504;6.300;2022-12-24T01:26:33;23.40;55.20
12477;DHT22;6303;51.504;6.300;2022-12-24T01:29:00;23.40;55.10
12477;DHT22;6303;51.504;6.300;2022-12-24T01:31:27;23.40;55.00
12477;DHT22;6303;51.504;6.300;2022-12-24T01:33:55;23.50;54.90
12477;DHT22;6303;51.504;6.300;2022-12-24T01:36:22;23.30;54.90
12477;DHT22;6303;51.504;6.300;2022-12-24T01:38:49;23.40;54.70
12477;DHT22;6303;51.504;6.300;2022-12-24T01:41:19;23.30;54.60
12477;DHT22;6303;51.504;6.300;2022-12-24T01:44:18;23.30;54.60
12477;DHT22;6303;51.504;6.300;2022-12-24T01:46:45;23.20;54.50
12477;DHT22;6303;51.504;6.300;2022-12-24T01:49:15;23.20;54.60
12477;DHT22;6303;51.504;6.300;2022-12-24T01:51:44;23.20;54.50
12477;DHT22;6303;51.504;6.300;2022-12-24T01:54:15;23.20;54.40
12477;DHT22;6303;51.504;6.300;2022-12-24T01:56:48;23.20;54.40
12477;DHT22;6303;51.504;6.300;2022-12-24T01:59:18;23.10;54.40
12477;DHT22;6303;51.504;6.300;2022-12-24T02:01:46;23.10;54.40
12477;DHT22;6303;51.504;6.300;2022-12-24T02:04:22;23.10;54.40
12477;DHT22;6303;51.504;6.300;2022-12-24T02:06:51;23.10;54.40
12477;DHT22;6303;51.504;6.300;2022-12-24T02:09:19;23.00;54.30
12477;DHT22;6303;51.504;6.300;2022-12-24T02:11:46;23.00;54.30
12477;DHT22;6303;51.504;6.300;2022-12-24T02:14:14;23.00;54.30
12477;DHT22;6303;51.504;6.300;2022-12-24T02:16:48;23.00;54.30
12477;DHT22;6303;51.504;6.300;2022-12-24T02:22:14;23.00;54.20
12477;DHT22;6303;51.504;6.300;2022-12-24T02:25:08;23.00;54.20
12477;DHT22;6303;51.504;6.300;2022-12-24T02:27:44;23.00;54.20
12477;DHT22;6303;51.504;6.300;2022-12-24T02:30:18;23.00;54.20
12477;DHT22;6303;51.504;6.300;2022-12-24T02:33:13;22.90;54.10
12477;DHT22;6303;51.504;6.300;2022-12-24T02:35:48;22.90;54.10
12477;DHT22;6303;51.504;6.300;2022-12-24T02:38:21;22.90;54.00
12477;DHT22;6303;51.504;6.300;2022-12-24T02:40:53;22.90;54.00
12477;DHT22;6303;51.504;6.300;2022-12-24T02:43:25;22.90;54.10
12477;DHT22;6303;51.504;6.300;2022-12-24T02:45:57;22.90;54.10
12477;DHT22;6303;51.504;6.300;2022-12-24T02:48:27;22.90;54.00
12477;DHT22;6303;51.504;6.300;2022-12-24T02:50:57;22.90;54.00
12477;DHT22;6303;51.504;6.300;2022-12-24T02:53:24;22.80;54.00
12477;DHT22;6303;51.504;6.300;2022-12-24T02:58:52;22.80;54.00
12477;DHT22;6303;51.504;6.300;2022-12-24T03:01:33;22.80;54.00
12477;DHT22;6303;51.504;6.300;2022-12-24T03:04:10;22.80;54.00
12477;DHT22;6303;51.504;6.300;2022-12-24T03:06:45;22.80;54.00
12477;DHT22;6303;51.504;6.300;2022-12-24T03:09:21;22.70;54.00
12477;DHT22;6303;51.504;6.300;2022-12-24T03:11:56;22.70;53.90
12477;DHT22;6303;51.504;6.300;2022-12-24T03:14:25;22.80;54.00
12477;DHT22;6303;51.504;6.300;2022-12-24T03:16:56;22.80;54.00
12477;DHT22;6303;51.504;6.300;2022-12-24T03:19:24;22.70;53.90
12477;DHT22;6303;51.504;6.300;2022-12-24T03:21:54;22.70;53.90
12477;DHT22;6303;51.504;6.300;2022-12-24T03:24:22;22.80;53.90
12477;DHT22;6303;51.504;6.300;2022-12-24T03:26:50;22.70;53.90
12477;DHT22;6303;51.504;6.300;2022-12-24T03:29:18;22.70;53.90
12477;DHT22;6303;51.504;6.300;2022-12-24T03:31:47;22.80;53.90
12477;DHT22;6303;51.504;6.300;2022-12-24T03:34:16;22.80;53.90
12477;DHT22;6303;51.504;6.300;2022-12-24T03:36:43;22.80;53.80
12477;DHT22;6303;51.504;6.300;2022-12-24T03:39:11;22.70;53.80
12477;DHT22;6303;51.504;6.300;2022-12-24T03:41:38;22.70;53.70
12477;DHT22;6303;51.504;6.300;2022-12-24T03:44:05;22.70;53.70
12477;DHT22;6303;51.504;6.300;2022-12-24T03:46:32;22.70;53.80
12477;DHT22;6303;51.504;6.300;2022-12-24T03:48:59;22.70;53.80
12477;DHT22;6303;51.504;6.300;2022-12-24T03:51:28;22.70;53.80
12477;DHT22;6303;51.504;6.300;2022-12-24T03:53:56;22.70;53.70
12477;DHT22;6303;51.504;6.300;2022-12-24T03:56:23;22.70;53.80
12477;DHT22;6303;51.504;6.300;2022-12-24T03:58:50;22.70;53.70
12477;DHT22;6303;51.504;6.300;2022-12-24T04:01:18;22.70;53.70
12477;DHT22;6303;51.504;6.300;2022-12-24T04:03:45;22.70;53.70
12477;DHT22;6303;51.504;6.300;2022-12-24T04:06:14;22.70;53.70
12477;DHT22;6303;51.504;6.300;2022-12-24T04:08:43;22.70;53.70
12477;DHT22;6303;51.504;6.300;2022-12-24T04:11:12;22.70;53.70
12477;DHT22;6303;51.504;6.300;2022-12-24T04:13:40;22.70;53.70
12477;DHT22;6303;51.504;6.300;2022-12-24T04:16:09;22.70;53.70
12477;DHT22;6303;51.504;6.300;2022-12-24T04:18:36;22.70;53.70
12477;DHT22;6303;51.504;6.300;2022-12-24T04:21:04;22.70;53.70
12477;DHT22;6303;51.504;6.300;2022-12-24T04:23:33;22.60;53.60
12477;DHT22;6303;51.504;6.300;2022-12-24T04:26:04;22.70;53.60
12477;DHT22;6303;51.504;6.300;2022-12-24T04:28:33;25.20;54.80
12477;DHT22;6303;51.504;6.300;2022-12-24T04:31:02;22.70;53.60
12477;DHT22;6303;51.504;6.300;2022-12-24T04:33:29;21.10;52.80
12477;DHT22;6303;51.504;6.300;2022-12-24T04:35:56;22.70;53.60
12477;DHT22;6303;51.504;6.300;2022-12-24T04:38:24;22.70;53.70
12477;DHT22;6303;51.504;6.300;2022-12-24T04:40:57;22.70;53.60
12477;DHT22;6303;51.504;6.300;2022-12-24T04:43:26;22.60;53.50
12477;DHT22;6303;51.504;6.300;2022-12-24T04:45:53;22.60;53.50
12477;DHT22;6303;51.504;6.300;2022-12-24T04:48:20;23.00;53.30
12477;DHT22;6303;51.504;6.300;2022-12-24T04:50:47;22.70;53.50
12477;DHT22;6303;51.504;6.300;2022-12-24T04:53:14;22.70;53.50
12477;DHT22;6303;51.504;6.300;2022-12-24T04:55:43;22.70;53.50
12477;DHT22;6303;51.504;6.300;2022-12-24T04:58:12;22.60;53.00
12477;DHT22;6303;51.504;6.300;2022-12-24T05:00:40;22.60;53.40
12477;DHT22;6303;51.504;6.300;2022-12-24T05:03:07;22.70;53.50
12477;DHT22;6303;51.504;6.300;2022-12-24T05:05:34;22.60;53.50
12477;DHT22;6303;51.504;6.300;2022-12-24T05:08:02;22.70;53.50
12477;DHT22;6303;51.504;6.300;2022-12-24T05:10:29;22.60;53.50
12477;DHT22;6303;51.504;6.300;2022-12-24T05:12:56;22.70;53.50
12477;DHT22;6303;51.504;6.300;2022-12-24T05:15:23;22.70;53.40
12477;DHT22;6303;51.504;6.300;2022-12-24T05:17:51;22.70;53.40
12477;DHT22;6303;51.504;6.300;2022-12-24T05:20:18;22.70;53.40
12477;DHT22;6303;51.504;6.300;2022-12-24T05:22:45;22.60;53.40
12477;DHT22;6303;51.504;6.300;2022-12-24T05:25:33;22.70;53.40
12477;DHT22;6303;51.504;6.300;2022-12-24T05:28:19;22.70;53.10
12477;DHT22;6303;51.504;6.300;2022-12-24T05:30:46;22.60;53.40
12477;DHT22;6303;51.504;6.300;2022-12-24T05:33:15;22.60;53.40
12477;DHT22;6303;51.504;6.300;2022-12-24T05:35:42;22.70;53.40
12477;DHT22;6303;51.504;6.300;2022-12-24T05:40:36;22.60;52.90
12477;DHT22;6303;51.504;6.300;2022-12-24T05:43:03;22.60;53.40
12477;DHT22;6303;51.504;6.300;2022-12-24T05:45:30;22.70;53.40
12477;DHT22;6303;51.504;6.300;2022-12-24T05:47:57;22.90;53.50
12477;DHT22;6303;51.504;6.300;2022-12-24T05:50:26;22.70;53.40
12477;DHT22;6303;51.504;6.300;2022-12-24T05:53:04;22.70;53.40
12477;DHT22;6303;51.504;6.300;2022-12-24T05:55:31;22.70;53.40
12477;DHT22;6303;51.504;6.300;2022-12-24T05:57:58;22.70;53.40
12477;DHT22;6303;51.504;6.300;2022-12-24T06:00:26;22.60;53.30
12477;DHT22;6303;51.504;6.300;2022-12-24T06:02:53;22.60;53.30
12477;DHT22;6303;51.504;6.300;2022-12-24T06:05:20;22.60;53.40
12477;DHT22;6303;51.504;6.300;2022-12-24T06:07:48;22.60;53.40
12477;DHT22;6303;51.504;6.300;2022-12-24T06:10:15;22.60;53.40
12477;DHT22;6303;51.504;6.300;2022-12-24T06:12:42;22.60;53.40
12477;DHT22;6303;51.504;6.300;2022-12-24T06:15:10;22.60;53.40
12477;DHT22;6303;51.504;6.300;2022-12-24T06:17:37;22.60;53.40
12477;DHT22;6303;51.504;6.300;2022-12-24T06:20:05;22.60;53.40
12477;DHT22;6303;51.504;6.300;2022-12-24T06:22:32;22.60;53.40
12477;DHT22;6303;51.504;6.300;2022-12-24T06:25:01;22.60;53.40
12477;DHT22;6303;51.504;6.300;2022-12-24T06:27:28;22.60;53.40
12477;DHT22;6303;51.504;6.300;2022-12-24T06:29:55;22.60;53.30
12477;DHT22;6303;51.504;6.300;2022-12-24T06:32:22;22.60;53.30
12477;DHT22;6303;51.504;6.300;2022-12-24T06:34:49;22.60;53.30
12477;DHT22;6303;51.504;6.300;2022-12-24T06:37:16;22.60;53.40
12477;DHT22;6303;51.504;6.300;2022-12-24T06:39:44;22.60;53.40
12477;DHT22;6303;51.504;6.300;2022-12-24T06:42:13;22.60;54.10
12477;DHT22;6303;51.504;6.300;2022-12-24T06:44:40;22.60;53.50
12477;DHT22;6303;51.504;6.300;2022-12-24T06:47:07;22.60;53.60
12477;DHT22;6303;51.504;6.300;2022-12-24T06:49:34;22.60;53.60
12477;DHT22;6303;51.504;6.300;2022-12-24T06:52:01;22.60;53.60
12477;DHT22;6303;51.504;6.300;2022-12-24T06:54:28;22.50;53.60
12477;DHT22;6303;51.504;6.300;2022-12-24T06:56:55;22.60;53.70
12477;DHT22;6303;51.504;6.300;2022-12-24T06:59:23;22.50;53.60
12477;DHT22;6303;51.504;6.300;2022-12-24T07:01:50;22.50;53.60
12477;DHT22;6303;51.504;6.300;2022-12-24T07:04:17;22.60;53.60
12477;DHT22;6303;51.504;6.300;2022-12-24T07:06:44;22.60;53.70
12477;DHT22;6303;51.504;6.300;2022-12-24T07:09:12;22.60;53.60
12477;DHT22;6303;51.504;6.300;2022-12-24T07:11:40;22.60;53.70
12477;DHT22;6303;51.504;6.300;2022-12-24T07:14:07;22.50;53.60
12477;DHT22;6303;51.504;6.300;2022-12-24T07:16:36;22.50;53.70
12477;DHT22;6303;51.504;6.300;2022-12-24T07:19:03;22.50;53.60
12477;DHT22;6303;51.504;6.300;2022-12-24T07:21:30;22.50;53.60
12477;DHT22;6303;51.504;6.300;2022-12-24T07:23:57;22.50;53.60
12477;DHT22;6303;51.504;6.300;2022-12-24T07:26:24;22.50;53.70
12477;DHT22;6303;51.504;6.300;2022-12-24T07:28:51;22.50;53.70
12477;DHT22;6303;51.504;6.300;2022-12-24T07:31:18;22.50;53.70
12477;DHT22;6303;51.504;6.300;2022-12-24T07:33:46;22.50;53.70
12477;DHT22;6303;51.504;6.300;2022-12-24T07:36:17;22.50;53.70
12477;DHT22;6303;51.504;6.300;2022-12-24T07:38:45;22.50;53.70
12477;DHT22;6303;51.504;6.300;2022-12-24T07:41:12;22.50;53.70
12477;DHT22;6303;51.504;6.300;2022-12-24T07:43:39;22.50;53.70
12477;DHT22;6303;51.504;6.300;2022-12-24T07:46:06;22.50;53.70
12477;DHT22;6303;51.504;6.300;2022-12-24T07:48:33;22.50;53.70
12477;DHT22;6303;51.504;6.300;2022-12-24T07:51:02;22.50;53.90
12477;DHT22;6303;51.504;6.300;2022-12-24T07:53:30;22.50;54.30
12477;DHT22;6303;51.504;6.300;2022-12-24T07:55:57;22.40;54.50
12477;DHT22;6303;51.504;6.300;2022-12-24T07:58:25;24.60;55.70
12477;DHT22;6303;51.504;6.300;2022-12-24T08:00:56;22.40;54.60
12477;DHT22;6303;51.504;6.300;2022-12-24T08:03:24;22.50;54.70
12477;DHT22;6303;51.504;6.300;2022-12-24T08:05:51;22.50;54.70
12477;DHT22;6303;51.504;6.300;2022-12-24T08:08:20;23.40;55.20
12477;DHT22;6303;51.504;6.300;2022-12-24T08:10:47;22.40;54.60
12477;DHT22;6303;51.504;6.300;2022-12-24T08:13:14;22.50;54.60
12477;DHT22;6303;51.504;6.300;2022-12-24T08:15:41;22.50;54.60
12477;DHT22;6303;51.504;6.300;2022-12-24T08:18:09;22.50;54.60
12477;DHT22;6303;51.504;6.300;2022-12-24T08:20:37;22.50;54.60
12477;DHT22;6303;51.504;6.300;2022-12-24T08:23:05;22.50;54.60
12477;DHT22;6303;51.504;6.300;2022-12-24T08:25:34;22.50;54.60
12477;DHT22;6303;51.504;6.300;2022-12-24T08:28:01;22.50;54.60
12477;DHT22;6303;51.504;6.300;2022-12-24T08:30:28;22.50;54.50
12477;DHT22;6303;51.504;6.300;2022-12-24T08:32:55;22.50;54.50
12477;DHT22;6303;51.504;6.300;2022-12-24T08:35:22;22.50;54.50
12477;DHT22;6303;51.504;6.300;2022-12-24T08:37:49;22.50;54.40
12477;DHT22;6303;51.504;6.300;2022-12-24T08:40:16;22.50;54.40
12477;DHT22;6303;51.504;6.300;2022-12-24T08:42:45;22.50;54.40
12477;DHT22;6303;51.504;6.300;2022-12-24T08:45:12;22.50;54.40
12477;DHT22;6303;51.504;6.300;2022-12-24T08:47:39;22.50;54.40
12477;DHT22;6303;51.504;6.300;2022-12-24T08:50:09;22.50;54.30
12477;DHT22;6303;51.504;6.300;2022-12-24T08:52:36;22.50;54.30
12477;DHT22;6303;51.504;6.300;2022-12-24T08:55:04;22.50;54.30
12477;DHT22;6303;51.504;6.300;2022-12-24T08:57:34;22.50;54.30
12477;DHT22;6303;51.504;6.300;2022-12-24T09:00:04;22.50;54.20
12477;DHT22;6303;51.504;6.300;2022-12-24T09:02:32;22.50;54.20
12477;DHT22;6303;51.504;6.300;2022-12-24T09:04:59;22.50;54.20
12477;DHT22;6303;51.504;6.300;2022-12-24T09:07:26;22.50;54.20
12477;DHT22;6303;51.504;6.300;2022-12-24T09:09:53;22.40;55.00
12477;DHT22;6303;51.504;6.300;2022-12-24T09:12:20;22.50;55.00
12477;DHT22;6303;51.504;6.300;2022-12-24T09:14:47;22.50;54.70
12477;DHT22;6303;51.504;6.300;2022-12-24T09:17:17;22.50;54.70
12477;DHT22;6303;51.504;6.300;2022-12-24T09:19:44;22.50;54.60
12477;DHT22;6303;51.504;6.300;2022-12-24T09:22:11;22.50;54.60
12477;DHT22;6303;51.504;6.300;2022-12-24T09:24:38;22.50;54.60
12477;DHT22;6303;51.504;6.300;2022-12-24T09:27:05;22.60;54.50
12477;DHT22;6303;51.504;6.300;2022-12-24T09:29:32;22.60;54.40
12477;DHT22;6303;51.504;6.300;2022-12-24T09:32:00;22.60;54.30
12477;DHT22;6303;51.504;6.300;2022-12-24T09:34:28;22.60;54.30
12477;DHT22;6303;51.504;6.300;2022-12-24T09:36:55;22.60;54.30
12477;DHT22;6303;51.504;6.300;2022-12-24T09:39:22;22.70;54.10
12477;DHT22;6303;51.504;6.300;2022-12-24T09:41:56;22.70;54.10
12477;DHT22;6303;51.504;6.300;2022-12-24T09:44:36;22.70;54.00
12477;DHT22;6303;51.504;6.300;2022-12-24T09:47:10;22.70;54.00
12477;DHT22;6303;51.504;6.300;2022-12-24T09:49:44;22.70;54.00
12477;DHT22;6303;51.504;6.300;2022-12-24T09:52:19;22.80;53.90
12477;DHT22;6303;51.504;6.300;2022-12-24T09:54:53;22.80;53.80
12477;DHT22;6303;51.504;6.300;2022-12-24T09:57:27;22.90;53.70
12477;DHT22;6303;51.504;6.300;2022-12-24T09:59:55;22.90;53.60
12477;DHT22;6303;51.504;6.300;2022-12-24T10:02:22;23.00;53.40
12477;DHT22;6303;51.504;6.300;2022-12-24T10:04:51;23.00;53.40
12477;DHT22;6303;51.504;6.300;2022-12-24T10:07:31;23.00;53.40
12477;DHT22;6303;51.504;6.300;2022-12-24T10:10:12;23.00;53.30
12477;DHT22;6303;51.504;6.300;2022-12-24T10:12:45;23.00;53.20
12477;DHT22;6303;51.504;6.300;2022-12-24T10:15:18;23.00;53.30
12477;DHT22;6303;51.504;6.300;2022-12-24T10:17:57;23.10;53.20
12477;DHT22;6303;51.504;6.300;2022-12-24T10:20:38;23.10;53.20
12477;DHT22;6303;51.504;6.300;2022-12-24T10:23:13;23.10;53.40
12477;DHT22;6303;51.504;6.300;2022-12-24T10:25:47;23.20;53.20
12477;DHT22;6303;51.504;6.300;2022-12-24T10:28:17;23.20;52.60
12477;DHT22;6303;51.504;6.300;2022-12-24T10:30:48;23.30;53.00
12477;DHT22;6303;51.504;6.300;2022-12-24T10:33:18;23.30;53.00
12477;DHT22;6303;51.504;6.300;2022-12-24T10:35:50;23.30;52.90
12477;DHT22;6303;51.504;6.300;2022-12-24T10:38:18;23.50;52.60
12477;DHT22;6303;51.504;6.300;2022-12-24T10:40:47;23.40;52.80
12477;DHT22;6303;51.504;6.300;2022-12-24T10:43:16;23.30;52.90
12477;DHT22;6303;51.504;6.300;2022-12-24T10:45:46;23.30;52.80
12477;DHT22;6303;51.504;6.300;2022-12-24T10:48:20;23.50;52.30
12477;DHT22;6303;51.504;6.300;2022-12-24T10:50:57;23.40;52.60
12477;DHT22;6303;51.504;6.300;2022-12-24T10:53:32;23.50;52.40
12477;DHT22;6303;51.504;6.300;2022-12-24T10:56:05;23.40;52.50
12477;DHT22;6303;51.504;6.300;2022-12-24T10:58:33;20.80;51.20
12477;DHT22;6303;51.504;6.300;2022-12-24T11:01:01;23.40;52.50
12477;DHT22;6303;51.504;6.300;2022-12-24T11:03:30;23.30;52.50
12477;DHT22;6303;51.504;6.300;2022-12-24T11:06:07;23.30;52.50
12477;DHT22;6303;51.504;6.300;2022-12-24T11:08:36;23.40;52.60
12477;DHT22;6303;51.504;6.300;2022-12-24T11:11:05;23.40;52.50
12477;DHT22;6303;51.504;6.300;2022-12-24T11:13:35;23.40;52.50
12477;DHT22;6303;51.504;6.300;2022-12-24T11:16:06;23.40;52.50
12477;DHT22;6303;51.504;6.300;2022-12-24T11:18:35;23.40;52.60
12477;DHT22;6303;51.504;6.300;2022-12-24T11:21:05;23.40;52.80
12477;DHT22;6303;51.504;6.300;2022-12-24T11:23:33;23.40;52.80
12477;DHT22;6303;51.504;6.300;2022-12-24T11:26:00;23.40;53.00
12477;DHT22;6303;51.504;6.300;2022-12-24T11:28:29;23.40;52.90
12477;DHT22;6303;51.504;6.300;2022-12-24T11:31:01;23.40;52.90
12477;DHT22;6303;51.504;6.300;2022-12-24T11:33:29;23.40;52.90
12477;DHT22;6303;51.504;6.300;2022-12-24T11:36:00;23.40;52.90
12477;DHT22;6303;51.504;6.300;2022-12-24T11:38:31;23.40;52.90
12477;DHT22;6303;51.504;6.300;2022-12-24T11:41:05;23.40;53.00
12477;DHT22;6303;51.504;6.300;2022-12-24T11:43:36;23.40;53.00
12477;DHT22;6303;51.504;6.300;2022-12-24T11:46:33;23.40;53.00
12477;DHT22;6303;51.504;6.300;2022-12-24T11:49:14;23.40;52.90
12477;DHT22;6303;51.504;6.300;2022-12-24T11:52:18;23.30;52.80
12477;DHT22;6303;51.504;6.300;2022-12-24T11:55:02;23.40;52.90
12477;DHT22;6303;51.504;6.300;2022-12-24T11:57:39;23.40;52.80
12477;DHT22;6303;51.504;6.300;2022-12-24T12:00:10;23.40;52.80
12477;DHT22;6303;51.504;6.300;2022-12-24T12:02:39;23.40;52.80
12477;DHT22;6303;51.504;6.300;2022-12-24T12:05:12;23.40;52.80
12477;DHT22;6303;51.504;6.300;2022-12-24T12:07:41;23.30;53.00
12477;DHT22;6303;51.504;6.300;2022-12-24T12:10:16;23.30;52.90
12477;DHT22;6303;51.504;6.300;2022-12-24T12:12:45;23.30;52.90
12477;DHT22;6303;51.504;6.300;2022-12-24T12:15:16;23.30;52.90
12477;DHT22;6303;51.504;6.300;2022-12-24T12:17:47;23.30;53.60
12477;DHT22;6303;51.504;6.300;2022-12-24T12:20:19;23.40;53.00
12477;DHT22;6303;51.504;6.300;2022-12-24T12:22:51;23.30;52.80
12477;DHT22;6303;51.504;6.300;2022-12-24T12:25:25;23.30;52.90
12477;DHT22;6303;51.504;6.300;2022-12-24T12:27:55;23.30;53.10
12477;DHT22;6303;51.504;6.300;2022-12-24T12:30:24;23.30;53.30
12477;DHT22;6303;51.504;6.300;2022-12-24T12:32:57;23.30;53.40
12477;DHT22;6303;51.504;6.300;2022-12-24T12:35:29;23.40;53.50
12477;DHT22;6303;51.504;6.300;2022-12-24T12:38:00;23.40;53.40
12477;DHT22;6303;51.504;6.300;2022-12-24T12:40:38;23.40;53.40
12477;DHT22;6303;51.504;6.300;2022-12-24T12:43:19;23.40;53.20
12477;DHT22;6303;51.504;6.300;2022-12-24T12:45:55;23.50;53.20
12477;DHT22;6303;51.504;6.300;2022-12-24T12:48:46;23.50;53.20
12477;DHT22;6303;51.504;6.300;2022-12-24T12:51:23;23.60;53.30
12477;DHT22;6303;51.504;6.300;2022-12-24T12:54:18;23.60;53.30
12477;DHT22;6303;51.504;6.300;2022-12-24T12:56:51;23.60;53.20
12477;DHT22;6303;51.504;6.300;2022-12-24T12:59:28;23.60;53.30
12477;DHT22;6303;51.504;6.300;2022-12-24T13:02:02;23.50;53.20
12477;DHT22;6303;51.504;6.300;2022-12-24T13:05:09;23.50;53.10
12477;DHT22;6303;51.504;6.300;2022-12-24T13:08:07;23.50;53.20
12477;DHT22;6303;51.504;6.300;2022-12-24T13:10:52;23.50;53.20
12477;DHT22;6303;51.504;6.300;2022-12-24T13:13:53;23.50;53.30
12477;DHT22;6303;51.504;6.300;2022-12-24T13:16:37;23.50;53.20
12477;DHT22;6303;51.504;6.300;2022-12-24T13:19:23;23.50;53.50
12477;DHT22;6303;51.504;6.300;2022-12-24T13:21:55;23.50;53.30
12477;DHT22;6303;51.504;6.300;2022-12-24T13:24:26;23.50;53.80
12477;DHT22;6303;51.504;6.300;2022-12-24T13:27:04;23.50;53.50
12477;DHT22;6303;51.504;6.300;2022-12-24T13:29:51;23.60;53.50
12477;DHT22;6303;51.504;6.300;2022-12-24T13:32:39;23.50;53.50
12477;DHT22;6303;51.504;6.300;2022-12-24T13:35:34;23.60;53.70
12477;DHT22;6303;51.504;6.300;2022-12-24T13:38:30;23.50;53.60
12477;DHT22;6303;51.504;6.300;2022-12-24T13:44:02;23.70;55.00
12477;DHT22;6303;51.504;6.300;2022-12-24T13:46:50;23.80;54.40
12477;DHT22;6303;51.504;6.300;2022-12-24T13:49:20;23.80;55.90
12477;DHT22;6303;51.504;6.300;2022-12-24T13:51:47;23.70;55.80
12477;DHT22;6303;51.504;6.300;2022-12-24T13:54:20;23.70;55.10
12477;DHT22;6303;51.504;6.300;2022-12-24T13:56:50;23.60;54.70
12477;DHT22;6303;51.504;6.300;2022-12-24T13:59:25;23.60;54.20
12477;DHT22;6303;51.504;6.300;2022-12-24T14:01:55;23.70;53.70
12477;DHT22;6303;51.504;6.300;2022-12-24T14:04:25;23.60;53.70
12477;DHT22;6303;51.504;6.300;2022-12-24T14:06:55;23.60;54.20
12477;DHT22;6303;51.504;6.300;2022-12-24T14:09:24;23.60;54.40
12477;DHT22;6303;51.504;6.300;2022-12-24T14:12:14;23.60;54.50
12477;DHT22;6303;51.504;6.300;2022-12-24T14:14:41;23.70;54.60
12477;DHT22;6303;51.504;6.300;2022-12-24T14:17:14;23.70;54.50
12477;DHT22;6303;51.504;6.300;2022-12-24T14:19:48;23.70;54.20
12477;DHT22;6303;51.504;6.300;2022-12-24T14:22:26;23.60;53.80
12477;DHT22;6303;51.504;6.300;2022-12-24T14:24:55;23.70;54.20
12477;DHT22;6303;51.504;6.300;2022-12-24T14:27:28;23.80;54.30
12477;DHT22;6303;51.504;6.300;2022-12-24T14:30:01;23.70;54.30
12477;DHT22;6303;51.504;6.300;2022-12-24T14:32:34;23.70;54.10
12477;DHT22;6303;51.504;6.300;2022-12-24T14:35:07;23.70;54.10
12477;DHT22;6303;51.504;6.300;2022-12-24T14:37:35;23.70;54.30
12477;DHT22;6303;51.504;6.300;2022-12-24T14:40:03;23.70;54.10
12477;DHT22;6303;51.504;6.300;2022-12-24T14:42:38;23.70;54.00
12477;DHT22;6303;51.504;6.300;2022-12-24T14:45:17;23.70;54.10
12477;DHT22;6303;51.504;6.300;2022-12-24T14:47:54;23.60;54.00
12477;DHT22;6303;51.504;6.300;2022-12-24T14:53:28;23.60;54.00
12477;DHT22;6303;51.504;6.300;2022-12-24T14:56:08;23.60;54.20
12477;DHT22;6303;51.504;6.300;2022-12-24T14:58:39;23.60;54.80
12477;DHT22;6303;51.504;6.300;2022-12-24T15:01:19;23.60;54.20
12477;DHT22;6303;51.504;6.300;2022-12-24T15:04:00;23.60;54.30
12477;DHT22;6303;51.504;6.300;2022-12-24T15:06:31;23.60;54.30
12477;DHT22;6303;51.504;6.300;2022-12-24T15:08:59;23.60;54.00
12477;DHT22;6303;51.504;6.300;2022-12-24T15:11:26;23.60;54.00
12477;DHT22;6303;51.504;6.300;2022-12-24T15:13:56;23.50;54.00
12477;DHT22;6303;51.504;6.300;2022-12-24T15:16:27;23.50;54.10
12477;DHT22;6303;51.504;6.300;2022-12-24T15:19:00;23.40;54.30
12477;DHT22;6303;51.504;6.300;2022-12-24T15:21:30;23.40;54.30
12477;DHT22;6303;51.504;6.300;2022-12-24T15:23:57;23.40;54.30
12477;DHT22;6303;51.504;6.300;2022-12-24T15:26:26;23.40;54.30
12477;DHT22;6303;51.504;6.300;2022-12-24T15:28:56;23.30;54.30
12477;DHT22;6303;51.504;6.300;2022-12-24T15:31:25;23.30;54.30
12477;DHT22;6303;51.504;6.300;2022-12-24T15:33:53;23.30;54.50
12477;DHT22;6303;51.504;6.300;2022-12-24T15:36:26;23.30;54.60
12477;DHT22;6303;51.504;6.300;2022-12-24T15:38:56;23.30;55.40
12477;DHT22;6303;51.504;6.300;2022-12-24T15:41:25;23.30;57.30
12477;DHT22;6303;51.504;6.300;2022-12-24T15:43:59;23.20;57.80
12477;DHT22;6303;51.504;6.300;2022-12-24T15:46:28;23.10;57.60
12477;DHT22;6303;51.504;6.300;2022-12-24T15:48:57;23.10;57.50
12477;DHT22;6303;51.504;6.300;2022-12-24T15:51:30;23.10;57.30
12477;DHT22;6303;51.504;6.300;2022-12-24T15:54:01;23.10;57.10
12477;DHT22;6303;51.504;6.300;2022-12-24T15:56:34;23.10;57.10
12477;DHT22;6303;51.504;6.300;2022-12-24T15:59:19;23.00;57.10
12477;DHT22;6303;51.504;6.300;2022-12-24T16:01:47;23.00;56.90
12477;DHT22;6303;51.504;6.300;2022-12-24T16:04:16;23.00;56.60
12477;DHT22;6303;51.504;6.300;2022-12-24T16:06:53;23.00;56.50
12477;DHT22;6303;51.504;6.300;2022-12-24T16:09:35;22.90;56.40
12477;DHT22;6303;51.504;6.300;2022-12-24T16:12:12;22.90;55.70
12477;DHT22;6303;51.504;6.300;2022-12-24T16:14:45;22.80;56.10
12477;DHT22;6303;51.504;6.300;2022-12-24T16:17:18;22.80;56.10
12477;DHT22;6303;51.504;6.300;2022-12-24T16:19:47;22.80;56.90
12477;DHT22;6303;51.504;6.300;2022-12-24T16:22:19;22.80;55.90